Time;durP1;ratioP1;P1;durP2;ratioP2;P2;SDS_P1;SDS_P2;PMS_P1;PMS_P2;Temp;Humidity;BMP_temperature;BMP_pressure;BME280_temperature;BME280_humidity;BME280_pressure;Samples;Min_cycle;Max_cycle;Signal;HPM_P1;HPM_P2
2021/12/02 00:00:06;;;;;;;9.38;5.30;;;;;;;8.78;100.00;97827.81;5091897;28;20048;-94
2021/12/02 00:02:32;;;;;;;11.30;5.43;;;;;;;8.80;100.00;97811.84;5092320;28;20064;-92
2021/12/02 00:04:58;;;;;;;12.02;5.35;;;;;;;8.90;100.00;97813.25;5092268;28;20047;-94
2021/12/02 00:07:24;;;;;;;12.75;5.13;;;;;;;8.97;100.00;97813.88;5092404;28;20036;-93
2021/12/02 00:09:50;;;;;;;9.13;4.68;;;;;;;8.95;100.00;97807.78;5092726;28;20040;-94
2021/12/02 00:12:18;;;;;;;8.27;4.93;;;;;;;8.90;100.00;97799.13;5092435;28;20040;-94
2021/12/02 00:14:47;;;;;;;11.63;4.80;;;;;;;8.81;100.00;97782.63;5092338;28;20059;-93
2021/12/02 00:23:32;;;;;;;7.78;4.40;;;;;;;9.16;100.00;97791.09;5150088;27;20375;-92
2021/12/02 00:26:00;;;;;;;10.10;4.75;;;;;;;9.16;100.00;97777.81;5128761;28;20032;-92
2021/12/02 00:28:28;;;;;;;8.57;4.53;;;;;;;9.10;100.00;97762.13;5130021;28;20539;-92
2021/12/02 00:30:55;;;;;;;10.55;4.72;;;;;;;9.15;100.00;97765.50;5131184;27;20051;-92
2021/12/02 00:33:24;;;;;;;14.65;4.35;;;;;;;9.16;100.00;97753.94;5131394;27;20492;-92
2021/12/02 00:35:50;;;;;;;;;;;;;;;9.30;100.00;97779.09;5133262;27;20099;-94
2021/12/02 00:38:20;;;;;;;12.10;5.05;;;;;;;9.10;100.00;97750.66;5132664;28;20392;-93
2021/12/02 00:40:46;;;;;;;9.05;3.83;;;;;;;9.10;100.00;97740.91;5133510;28;20112;-91
2021/12/02 00:43:12;;;;;;;10.10;4.68;;;;;;;9.16;100.00;97761.91;5132342;27;20500;-92
2021/12/02 00:45:39;;;;;;;9.85;4.82;;;;;;;9.32;100.00;97771.94;5130228;27;20082;-94
2021/12/02 00:48:07;;;;;;;15.23;4.55;;;;;;;9.12;100.00;97747.03;5132892;27;20055;-92
2021/12/02 00:50:33;;;;;;;11.52;5.03;;;;;;;9.13;100.00;97740.81;5134132;27;20035;-91
2021/12/02 00:53:00;;;;;;;14.57;5.18;;;;;;;9.25;100.00;97758.91;5131160;27;20043;-91
2021/12/02 00:55:28;;;;;;;9.18;4.40;;;;;;;9.13;100.00;97730.19;5128474;27;20054;-93
2021/12/02 00:57:54;;;;;;;10.52;4.35;;;;;;;9.16;100.00;97729.22;5133232;27;20051;-94
2021/12/02 01:00:20;;;;;;;11.32;4.30;;;;;;;9.22;100.00;97748.41;5132920;27;20040;-92
2021/12/02 01:02:49;;;;;;;10.73;4.93;;;;;;;9.24;100.00;97743.06;5130402;27;20039;-93
2021/12/02 01:05:15;;;;;;;9.52;4.50;;;;;;;9.19;100.00;97735.25;5131766;28;20060;-92
2021/12/02 01:07:42;;;;;;;9.85;4.70;;;;;;;9.10;100.00;97724.13;5131275;28;20047;-91
2021/12/02 01:10:08;;;;;;;11.88;5.35;;;;;;;9.21;100.00;97744.00;5130823;28;20047;-91
2021/12/02 01:12:36;;;;;;;10.65;4.40;;;;;;;9.14;100.00;97728.41;5129646;27;20047;-92
2021/12/02 01:15:02;;;;;;;11.68;4.45;;;;;;;9.18;100.00;97746.78;5128791;28;20039;-92
2021/12/02 01:17:28;;;;;;;9.73;4.30;;;;;;;9.17;100.00;97750.38;5128540;27;20047;-91
2021/12/02 01:19:54;;;;;;;11.55;4.60;;;;;;;9.18;100.00;97744.16;5123136;27;20050;-93
2021/12/02 01:22:21;;;;;;;9.77;3.97;;;;;;;9.06;100.00;97718.06;5132631;27;20071;-92
2021/12/02 01:24:49;;;;;;;7.72;4.00;;;;;;;9.14;100.00;97726.63;5131491;27;20074;-93
2021/12/02 01:27:19;;;;;;;7.83;4.07;;;;;;;9.23;100.00;97739.50;5132329;27;20130;-92
2021/12/02 01:29:47;;;;;;;8.65;3.92;;;;;;;9.10;100.00;97727.66;5130364;27;20039;-91
2021/12/02 01:32:15;;;;;;;10.70;4.13;;;;;;;9.19;100.00;97731.75;5127725;28;20382;-91
2021/12/02 01:34:44;;;;;;;11.50;4.50;;;;;;;9.03;100.00;97697.84;5115124;27;20092;-91
2021/12/02 01:37:10;;;;;;;8.18;4.55;;;;;;;9.19;100.00;97719.34;5120587;28;20047;-92
2021/12/02 01:39:37;;;;;;;8.98;4.30;;;;;;;9.14;100.00;97705.41;5118468;28;20513;-91
2021/12/02 01:42:03;;;;;;;6.53;4.68;;;;;;;9.11;100.00;97710.84;5120764;28;20066;-93
2021/12/02 01:44:29;;;;;;;7.18;3.67;;;;;;;9.11;100.00;97707.28;5118705;28;20595;-93
2021/12/02 01:47:00;;;;;;;6.88;4.05;;;;;;;9.14;100.00;97713.34;5122176;27;20070;-95
2021/12/02 01:49:28;;;;;;;7.47;3.63;;;;;;;9.10;100.00;97713.53;5118220;28;20040;-92
2021/12/02 01:51:55;;;;;;;6.40;3.50;;;;;;;9.16;100.00;97708.84;5119186;28;20580;-92
2021/12/02 01:54:23;;;;;;;12.20;4.43;;;;;;;9.01;100.00;97682.94;5117438;28;20402;-92
2021/12/02 01:56:51;;;;;;;7.82;3.70;;;;;;;9.00;100.00;97681.19;5120679;27;20039;-94
2021/12/02 01:59:19;;;;;;;11.15;3.88;;;;;;;9.06;100.00;97691.56;5116233;27;20100;-93
2021/12/02 02:01:51;;;;;;;7.45;3.72;;;;;;;9.10;100.00;97687.88;5111898;27;20097;-92
2021/12/02 02:04:19;;;;;;;7.85;3.72;;;;;;;9.04;100.00;97661.59;5114153;28;20116;-92
2021/12/02 02:06:54;;;;;;;11.00;4.10;;;;;;;8.98;100.00;97656.53;5123202;27;20043;-94
2021/12/02 02:09:20;;;;;;;8.80;3.60;;;;;;;8.98;100.00;97656.53;5116743;28;20035;-93
2021/12/02 02:11:46;;;;;;;10.93;4.47;;;;;;;9.03;100.00;97666.03;5117816;28;20035;-92
2021/12/02 02:14:12;;;;;;;7.93;3.75;;;;;;;9.18;100.00;97684.94;5117341;27;20378;-94
2021/12/02 02:16:40;;;;;;;10.30;3.90;;;;;;;9.05;100.00;97663.31;5115459;28;20040;-95
2021/12/02 02:19:09;;;;;;;8.63;3.67;;;;;;;9.12;100.00;97671.91;5117455;28;20063;-92
2021/12/02 02:21:36;;;;;;;6.47;3.43;;;;;;;8.95;100.00;97644.25;5114972;27;20047;-92
2021/12/02 02:24:03;;;;;;;7.90;3.50;;;;;;;8.96;100.00;97642.47;5116982;28;20054;-92
2021/12/02 02:29:23;;;;;;;8.93;3.80;;;;;;;9.14;100.00;97649.69;5126154;27;20751;-93
2021/12/02 02:31:49;;;;;;;10.57;3.75;;;;;;;9.17;100.00;97643.41;5089798;28;20037;-91
2021/12/02 02:34:15;;;;;;;6.78;3.50;;;;;;;9.05;100.00;97624.41;5092813;28;20044;-93
2021/12/02 02:39:44;;;;;;;8.80;3.92;;;;;;;9.09;100.00;97613.69;5103550;27;20379;-92
2021/12/02 02:42:10;;;;;;;11.40;4.18;;;;;;;9.16;100.00;97626.63;5109910;28;21756;-93
2021/12/02 02:44:37;;;;;;;6.50;3.72;;;;;;;9.01;100.00;97612.19;5100813;27;20044;-92
2021/12/02 02:47:03;;;;;;;12.20;4.90;;;;;;;9.10;100.00;97626.88;5105289;28;20045;-95
2021/12/02 02:49:29;;;;;;;8.38;3.72;;;;;;;9.11;100.00;97627.72;5106292;28;20043;-94
2021/12/02 02:51:55;;;;;;;7.28;3.75;;;;;;;9.08;100.00;97612.81;5101939;28;20032;-92
2021/12/02 02:54:22;;;;;;;9.75;4.15;;;;;;;9.06;100.00;97612.00;5102775;28;20043;-92
2021/12/02 02:56:55;;;;;;;15.32;4.70;;;;;;;8.97;100.00;97594.66;5101100;28;20300;-93
2021/12/02 03:05:21;;;;;;;7.70;3.78;;;;;;;8.99;100.00;97581.34;5093215;27;20385;-93
2021/12/02 03:07:52;;;;;;;10.60;3.53;;;;;;;9.09;100.00;97589.81;5089426;28;20041;-94
2021/12/02 03:13:22;;;;;;;10.98;4.78;;;;;;;9.02;100.00;97578.56;5133549;27;20409;-93
2021/12/02 03:18:52;;;;;;;13.48;3.63;;;;;;;9.02;100.00;97567.97;5121029;27;20399;-93
2021/12/02 03:21:19;;;;;;;9.27;3.50;;;;;;;9.19;100.00;97581.41;5084275;28;20040;-92
2021/12/02 03:23:48;;;;;;;10.30;3.83;;;;;;;9.15;100.00;97577.19;5087345;28;20082;-92
2021/12/02 03:26:14;;;;;;;8.82;3.50;;;;;;;9.14;100.00;97550.72;5084893;28;20040;-95
2021/12/02 03:28:40;;;;;;;11.00;3.70;;;;;;;9.17;100.00;97555.88;5079367;28;20056;-94
2021/12/02 03:31:08;;;;;;;6.47;3.60;;;;;;;9.18;100.00;97569.09;5088248;28;20044;-91
2021/12/02 03:33:34;;;;;;;8.43;3.47;;;;;;;9.04;100.00;97535.19;5080529;28;20044;-94
2021/12/02 03:36:01;;;;;;;7.22;3.67;;;;;;;9.05;100.00;97551.94;5086325;28;20044;-93
2021/12/02 03:38:27;;;;;;;12.30;4.30;;;;;;;9.24;100.00;97558.22;5085114;28;20041;-91
2021/12/02 03:40:53;;;;;;;11.38;3.20;;;;;;;9.08;100.00;97535.03;5086273;28;20062;-93
2021/12/02 03:43:21;;;;;;;9.40;3.97;;;;;;;9.18;100.00;97544.34;5083133;28;20040;-92
2021/12/02 03:45:47;;;;;;;9.95;3.40;;;;;;;9.23;100.00;97550.31;5086683;28;20044;-94
2021/12/02 03:48:13;;;;;;;10.93;3.22;;;;;;;9.21;100.00;97553.03;5086285;28;20048;-91
2021/12/02 03:50:39;;;;;;;10.15;3.63;;;;;;;9.21;100.00;97553.03;5087066;28;20068;-94
2021/12/02 03:53:06;;;;;;;12.63;3.60;;;;;;;9.12;100.00;97536.66;5084735;28;20056;-92
2021/12/02 03:55:32;;;;;;;10.18;3.72;;;;;;;9.22;100.00;97532.69;5080548;28;20044;-92
2021/12/02 03:57:58;;;;;;;10.30;3.80;;;;;;;9.13;100.00;97522.44;5085565;28;20082;-93
2021/12/02 04:00:24;;;;;;;8.60;3.45;;;;;;;9.12;100.00;97547.25;5088056;28;20510;-93
2021/12/02 04:02:50;;;;;;;7.63;3.70;;;;;;;9.15;100.00;97544.47;5088544;28;20083;-92
2021/12/02 04:05:17;;;;;;;7.40;3.40;;;;;;;9.10;100.00;97542.00;5080957;28;20385;-93
2021/12/02 04:07:43;;;;;;;12.38;3.90;;;;;;;8.96;100.00;97518.72;5082888;28;20069;-92
2021/12/02 04:10:11;;;;;;;9.88;3.72;;;;;;;9.07;100.00;97533.34;5087316;28;20037;-94
2021/12/02 04:15:35;;;;;;;11.18;3.67;;;;;;;9.00;100.00;97524.72;5117904;27;1593938;-93
2021/12/02 04:18:01;;;;;;;8.50;3.55;;;;;;;8.99;100.00;97520.38;5163022;27;20129;-93
2021/12/02 04:20:27;;;;;;;7.72;3.15;;;;;;;9.08;100.00;97535.03;5162770;27;20496;-93
2021/12/02 04:25:55;;;;;;;9.38;3.72;;;;;;;9.00;100.00;97498.22;5155631;27;20393;-92
2021/12/02 04:28:21;;;;;;;9.82;3.55;;;;;;;8.90;100.00;97473.88;5157255;27;20031;-95
2021/12/02 04:30:47;;;;;;;8.75;3.75;;;;;;;9.02;100.00;97509.63;5153008;27;20039;-91
2021/12/02 04:33:13;;;;;;;13.40;3.83;;;;;;;8.88;100.00;97474.88;5155700;27;20049;-95
2021/12/02 04:35:39;;;;;;;8.27;4.30;;;;;;;9.00;100.00;97500.88;5158352;27;20039;-93
2021/12/02 04:38:04;;;;;;;10.90;4.22;;;;;;;8.91;100.00;97474.75;5155845;27;20110;-95
2021/12/02 04:40:30;;;;;;;10.77;4.18;;;;;;;8.97;100.00;97485.97;5149898;27;20172;-92
2021/12/02 04:42:58;;;;;;;10.00;3.80;;;;;;;8.95;100.00;97492.25;5155040;27;20496;-90
2021/12/02 04:45:23;;;;;;;7.78;3.60;;;;;;;8.78;100.00;97469.06;5154082;27;20035;-93
2021/12/02 04:47:49;;;;;;;11.55;3.90;;;;;;;8.76;100.00;97462.97;5156575;27;20053;-91
2021/12/02 04:50:15;;;;;;;10.15;4.03;;;;;;;8.80;100.00;97485.78;5154984;27;20039;-92
2021/12/02 04:52:41;;;;;;;10.45;3.70;;;;;;;8.68;100.00;97468.59;5155102;27;20038;-92
2021/12/02 04:55:08;;;;;;;9.18;3.53;;;;;;;8.87;100.00;97489.94;5153812;27;20084;-92
2021/12/02 04:57:34;;;;;;;9.35;3.58;;;;;;;8.87;100.00;97478.44;5153919;27;20039;-93
2021/12/02 05:00:04;;;;;;;7.13;2.90;;;;;;;9.03;100.00;97476.91;5150254;27;20100;-94
2021/12/02 05:02:30;;;;;;;6.22;2.97;;;;;;;9.04;100.00;97478.59;5155503;27;20042;-92
2021/12/02 05:04:56;;;;;;;6.75;3.38;;;;;;;9.10;100.00;97472.19;5155139;27;20031;-92
2021/12/02 05:07:22;;;;;;;7.50;2.90;;;;;;;9.17;100.00;97468.34;5155892;27;20046;-93
2021/12/02 05:09:48;;;;;;;6.85;2.80;;;;;;;9.33;100.00;97488.00;5144993;27;20047;-90
2021/12/02 05:12:14;;;;;;;6.57;2.92;;;;;;;9.16;100.00;97453.38;5155638;27;20121;-93
2021/12/02 05:14:40;;;;;;;8.77;3.05;;;;;;;9.38;100.00;97480.72;5155994;27;20065;-93
2021/12/02 05:17:07;;;;;;;7.47;3.05;;;;;;;9.23;100.00;97452.19;5155062;27;20046;-93
2021/12/02 05:19:33;;;;;;;7.72;2.83;;;;;;;9.22;100.00;97446.03;5154474;27;20070;-91
2021/12/02 05:21:59;;;;;;;10.02;3.10;;;;;;;9.33;100.00;97466.78;5155130;27;20347;-93
2021/12/02 05:24:25;;;;;;;7.15;2.67;;;;;;;9.40;100.00;97470.88;5156810;27;20727;-92
2021/12/02 05:26:51;;;;;;;6.82;3.03;;;;;;;9.38;100.00;97464.78;5154755;27;20068;-93
2021/12/02 05:29:16;;;;;;;7.82;3.00;;;;;;;9.43;100.00;97468.13;5153863;27;20039;-93
2021/12/02 05:31:42;;;;;;;6.88;3.08;;;;;;;9.31;100.00;97428.00;5151747;27;20163;-92
2021/12/02 05:34:10;;;;;;;5.97;2.85;;;;;;;9.34;100.00;97430.50;5155753;27;20043;-93
2021/12/02 05:36:36;;;;;;;9.68;3.08;;;;;;;9.28;100.00;97428.97;5144497;27;20374;-95
2021/12/02 05:39:02;;;;;;;10.32;3.88;;;;;;;9.41;100.00;97453.16;5140019;27;20085;-92
2021/12/02 05:41:28;;;;;;;7.00;3.88;;;;;;;9.47;100.00;97460.88;5141290;27;20063;-93
2021/12/02 05:43:54;;;;;;;5.85;3.45;;;;;;;9.35;100.00;97445.50;5136224;27;20062;-92
2021/12/02 05:46:21;;;;;;;8.77;3.60;;;;;;;9.27;100.00;97429.06;5139407;27;20038;-92
2021/12/02 05:48:49;;;;;;;9.52;4.00;;;;;;;9.25;100.00;97422.00;5140701;27;20031;-92
2021/12/02 05:51:16;;;;;;;12.25;6.18;;;;;;;9.16;100.00;97417.09;5141284;27;20100;-92
2021/12/02 05:53:42;;;;;;;10.93;4.55;;;;;;;9.28;100.00;97431.63;5138867;27;20046;-95
2021/12/02 05:56:08;;;;;;;12.32;4.55;;;;;;;9.30;100.00;97434.22;5140591;27;20484;-94
2021/12/02 05:58:34;;;;;;;9.13;4.57;;;;;;;9.28;100.00;97428.09;5142626;27;20039;-94
2021/12/02 06:01:00;;;;;;;8.38;4.00;;;;;;;9.16;100.00;97416.25;5134819;27;20123;-93
2021/12/02 06:03:26;;;;;;;8.43;3.80;;;;;;;9.09;100.00;97406.84;5140796;27;20118;-94
2021/12/02 06:05:52;;;;;;;8.02;3.42;;;;;;;9.22;100.00;97431.91;5139097;27;20051;-94
2021/12/02 06:08:19;;;;;;;9.15;3.47;;;;;;;9.09;100.00;97410.34;5138638;27;20056;-93
2021/12/02 06:10:45;;;;;;;6.45;3.35;;;;;;;9.11;100.00;97410.25;5139467;27;20036;-94
2021/12/02 06:13:11;;;;;;;6.35;3.67;;;;;;;9.04;100.00;97394.66;5140822;27;20050;-93
2021/12/02 06:15:37;;;;;;;7.53;3.50;;;;;;;8.98;100.00;97386.09;5140635;27;20039;-95
2021/12/02 06:18:03;;;;;;;8.02;4.95;;;;;;;9.15;100.00;97415.41;5142496;27;20041;-94
2021/12/02 06:20:29;;;;;;;11.63;6.20;;;;;;;9.10;100.00;97397.94;5143104;27;20492;-91
2021/12/02 06:22:55;;;;;;;10.45;5.72;;;;;;;9.16;100.00;97422.41;5141954;27;20043;-94
2021/12/02 06:28:07;;;;;;;7.20;3.88;;;;;;;9.10;100.00;97405.91;5114861;27;20392;-94
2021/12/02 06:30:33;;;;;;;8.63;4.80;;;;;;;9.19;100.00;97406.34;5113893;28;20540;-93
2021/12/02 06:32:59;;;;;;;8.57;4.28;;;;;;;9.04;100.00;97392.00;5118021;28;20040;-93
2021/12/02 06:35:25;;;;;;;9.63;4.55;;;;;;;9.09;100.00;97401.53;5117079;28;20047;-91
2021/12/02 06:37:52;;;;;;;12.23;6.47;;;;;;;9.03;100.00;97392.06;5115759;28;20048;-94
2021/12/02 06:40:18;;;;;;;10.77;5.68;;;;;;;8.92;100.00;97384.56;5117661;28;20040;-94
2021/12/02 06:42:44;;;;;;;9.95;6.13;;;;;;;9.01;100.00;97399.22;5115696;28;20048;-93
2021/12/02 06:45:11;;;;;;;14.02;6.85;;;;;;;8.96;100.00;97393.25;5115645;28;20126;-94
2021/12/02 06:47:39;;;;;;;13.25;7.00;;;;;;;8.99;100.00;97386.00;5115741;28;20047;-95
2021/12/02 06:50:09;;;;;;;12.25;5.10;;;;;;;8.95;100.00;97365.00;5116069;28;20055;-95
2021/12/02 06:52:36;;;;;;;9.30;5.03;;;;;;;9.00;100.00;97376.25;5119126;28;20040;-94
2021/12/02 06:55:02;;;;;;;11.30;6.13;;;;;;;9.14;100.00;97400.41;5115004;28;20127;-95
2021/12/02 06:57:28;;;;;;;7.97;4.45;;;;;;;9.16;100.00;97384.44;5115478;28;20401;-93
2021/12/02 06:59:54;;;;;;;11.15;4.78;;;;;;;9.19;100.00;97387.78;5116294;28;20040;-94
2021/12/02 07:02:21;;;;;;;18.40;7.28;;;;;;;9.12;100.00;97373.09;5116462;28;20434;-94
2021/12/02 07:07:47;;;;;;;8.55;5.60;;;;;;;9.32;100.00;97374.00;5137448;27;20375;-93
2021/12/02 07:10:17;;;;;;;11.40;6.97;;;;;;;9.53;100.00;97409.34;5133963;28;20100;-93
2021/12/02 07:12:45;;;;;;;11.52;6.57;;;;;;;9.43;100.00;97382.31;5136741;27;20960;-94
2021/12/02 07:18:14;;;;;;;12.35;4.40;;;;;;;9.53;100.00;97398.72;5111533;27;20370;-94
2021/12/02 07:20:42;;;;;;;12.65;6.78;;;;;;;9.44;100.00;97371.66;5086563;28;20048;-93
2021/12/02 07:23:09;;;;;;;8.45;4.10;;;;;;;9.42;100.00;97381.47;5087454;28;20049;-95
2021/12/02 07:25:40;;;;;;;10.43;4.82;;;;;;;9.49;100.00;97394.47;5085951;28;20063;-94
2021/12/02 07:28:07;;;;;;;10.68;4.60;;;;;;;9.48;100.00;97406.88;5089399;28;20828;-95
2021/12/02 07:30:33;;;;;;;14.55;6.30;;;;;;;9.43;100.00;97398.25;5082212;28;20391;-95
2021/12/02 07:33:00;;;;;;;12.50;5.85;;;;;;;9.47;100.00;97410.44;5091503;28;20046;-94
2021/12/02 07:35:27;;;;;;;13.23;4.70;;;;;;;9.44;100.00;97418.56;5076383;28;20078;-95
2021/12/02 07:37:55;;;;;;;13.88;5.65;;;;;;;9.35;100.00;97403.91;5078119;28;20122;-94
2021/12/02 07:40:23;;;;;;;8.65;4.53;;;;;;;9.34;100.00;97398.66;5076550;28;20051;-93
2021/12/02 07:45:46;;;;;;;9.48;3.95;;;;;;;9.34;100.00;97409.28;5092184;27;20918;-93
2021/12/02 07:48:14;;;;;;;12.00;4.05;;;;;;;9.33;100.00;97394.31;5092613;28;20094;-93
2021/12/02 07:50:40;;;;;;;10.98;4.40;;;;;;;9.23;100.00;97386.72;5093254;28;20505;-95
2021/12/02 07:53:08;;;;;;;9.40;5.43;;;;;;;9.31;100.00;97398.81;5093394;28;20066;-93
2021/12/02 07:55:36;;;;;;;9.35;5.00;;;;;;;9.29;100.00;97400.66;5093106;28;20076;-94
2021/12/02 07:58:06;;;;;;;13.32;5.30;;;;;;;9.17;100.00;97384.38;5091659;28;20052;-94
2021/12/02 08:00:32;;;;;;;12.27;5.57;;;;;;;9.29;100.00;97387.41;5092263;28;20076;-94
2021/12/02 08:02:59;;;;;;;13.80;5.85;;;;;;;9.48;100.00;97400.69;5091748;28;20044;-94
2021/12/02 08:05:26;;;;;;;12.43;6.00;;;;;;;9.56;100.00;97383.50;5091463;28;20043;-94
2021/12/02 08:07:53;;;;;;;13.07;5.80;;;;;;;9.74;100.00;97387.13;5091045;28;20040;-92
2021/12/02 08:10:20;;;;;;;13.13;6.07;;;;;;;9.84;100.00;97384.91;5091204;28;20045;-93
2021/12/02 08:12:48;;;;;;;16.35;7.00;;;;;;;9.91;100.00;97385.47;5091315;28;20501;-93
2021/12/02 08:15:16;;;;;;;16.02;7.03;;;;;;;9.94;100.00;97380.88;5091152;28;20032;-94
2021/12/02 08:17:43;;;;;;;16.25;7.40;;;;;;;9.95;100.00;97371.13;5091213;28;20106;-94
2021/12/02 08:20:11;;;;;;;12.18;6.10;;;;;;;10.04;100.00;97382.19;5090596;28;20043;-93
2021/12/02 08:22:37;;;;;;;14.13;5.72;;;;;;;10.07;100.00;97389.16;5090869;28;20040;-93
2021/12/02 08:25:04;;;;;;;14.18;5.80;;;;;;;9.91;100.00;97369.53;5086385;28;20091;-93
2021/12/02 08:27:31;;;;;;;12.88;5.53;;;;;;;9.81;100.00;97366.47;5091411;28;20048;-94
2021/12/02 08:29:57;;;;;;;9.18;4.20;;;;;;;9.96;100.00;97383.47;5091143;28;20497;-95
2021/12/02 08:32:22;;;;;;;9.70;4.22;;;;;;;9.98;100.00;97394.91;5089775;28;20042;-93
2021/12/02 08:34:49;;;;;;;10.30;4.10;;;;;;;9.88;100.00;97391.78;5090862;28;20032;-94
2021/12/02 08:37:16;;;;;;;13.68;4.88;;;;;;;9.83;100.00;97373.41;5090850;28;20362;-93
2021/12/02 08:39:43;;;;;;;9.45;4.20;;;;;;;10.07;100.00;97383.84;5090719;28;20072;-95
2021/12/02 08:42:10;;;;;;;9.35;4.32;;;;;;;10.11;100.00;97373.94;5091633;28;20158;-94
2021/12/02 08:44:40;;;;;;;8.75;4.32;;;;;;;10.15;100.00;97387.00;5091283;28;20048;-95
2021/12/02 08:47:09;;;;;;;8.55;4.60;;;;;;;10.12;100.00;97379.16;5090734;28;20040;-95
2021/12/02 08:49:35;;;;;;;6.82;4.50;;;;;;;10.33;100.00;97400.38;5091016;28;20044;-93
2021/12/02 08:52:01;;;;;;;8.77;4.90;;;;;;;10.23;100.00;97368.00;5091227;28;20040;-94
2021/12/02 08:54:28;;;;;;;7.65;4.38;;;;;;;10.30;100.00;97374.81;5091000;28;20028;-95
2021/12/02 08:56:55;;;;;;;6.88;4.43;;;;;;;10.21;100.00;97365.47;5078767;28;20118;-93
2021/12/02 08:59:21;;;;;;;12.75;4.95;;;;;;;10.38;100.00;97353.16;5077287;28;20063;-95
2021/12/02 09:01:47;;;;;;;12.23;5.65;;;;;;;10.54;100.00;97346.16;5078114;28;20032;-94
2021/12/02 09:04:13;;;;;;;12.82;5.78;;;;;;;10.94;100.00;97357.44;5077387;28;20128;-94
2021/12/02 09:06:39;;;;;;;10.65;5.30;;;;;;;11.26;100.00;97355.78;5079177;28;20087;-94
2021/12/02 09:09:05;;;;;;;9.15;4.60;;;;;;;11.34;100.00;97335.88;5078257;28;20074;-94
2021/12/02 09:11:33;;;;;;;8.50;4.10;;;;;;;11.15;100.00;97320.03;5078445;28;20102;-93
2021/12/02 09:14:02;;;;;;;7.20;3.90;;;;;;;11.34;100.00;97347.38;5078240;28;20078;-93
2021/12/02 09:16:29;;;;;;;6.63;3.57;;;;;;;11.31;99.70;97331.56;5079120;28;20556;-95
2021/12/02 09:18:56;;;;;;;7.63;3.67;;;;;;;11.39;100.00;97347.16;5079493;28;20057;-95
2021/12/02 09:21:23;;;;;;;9.57;3.75;;;;;;;11.34;99.41;97326.06;5079231;28;20044;-94
2021/12/02 09:23:49;;;;;;;8.63;3.42;;;;;;;11.47;99.26;97342.25;5078639;28;20071;-95
2021/12/02 09:26:16;;;;;;;7.97;3.75;;;;;;;11.34;99.20;97347.38;5078661;28;20048;-95
2021/12/02 09:28:52;;;;;;;9.18;3.70;;;;;;;11.25;99.72;97331.91;5058505;28;20104;-95
2021/12/02 09:31:18;;;;;;;9.65;4.00;;;;;;;11.09;99.83;97326.53;5079229;28;20509;-94
2021/12/02 09:33:46;;;;;;;10.02;3.60;;;;;;;11.21;99.46;97348.97;5079546;28;20055;-94
2021/12/02 09:36:12;;;;;;;8.77;3.40;;;;;;;11.09;99.14;97315.88;5079228;28;20048;-95
2021/12/02 09:38:38;;;;;;;9.57;3.78;;;;;;;11.11;99.76;97335.28;5080510;28;20044;-95
2021/12/02 09:41:04;;;;;;;7.47;3.83;;;;;;;11.13;99.71;97329.91;5081392;28;20064;-94
2021/12/02 12:05:04;;;;;;;14.43;9.43;;;;;;;10.33;100.00;97008.00;5081818;27;1388803;-93
2021/12/02 12:07:46;;;;;;;22.95;12.98;;;;;;;10.39;100.00;97020.94;5132106;27;20031;-92
2021/12/02 12:10:21;;;;;;;19.77;11.02;;;;;;;10.32;100.00;97013.38;5131095;27;20050;-94
2021/12/02 12:12:47;;;;;;;20.00;11.65;;;;;;;10.35;100.00;97023.84;5128304;27;20035;-91
2021/12/02 12:15:34;;;;;;;22.60;11.25;;;;;;;10.28;100.00;97010.88;5119670;27;20039;-90
2021/12/02 12:18:01;;;;;;;23.05;13.02;;;;;;;10.24;100.00;97005.81;5134441;27;20066;-93
2021/12/02 12:21:02;;;;;;;13.48;7.70;;;;;;;10.22;100.00;96999.72;5124309;27;20035;-91
2021/12/02 12:23:41;;;;;;;12.90;5.72;;;;;;;10.15;100.00;96966.44;5045468;28;20132;-92
2021/12/02 12:26:12;;;;;;;10.57;6.13;;;;;;;10.11;100.00;96951.63;5053456;28;20048;-94
2021/12/02 12:29:26;;;;;;;15.43;8.48;;;;;;;10.19;100.00;96975.94;5050631;28;20049;-93
2021/12/02 12:38:40;;;;;;;34.58;19.20;;;;;;;10.25;100.00;96967.66;5139352;27;20423;-92
2021/12/02 12:41:12;;;;;;;30.98;17.42;;;;;;;10.17;100.00;96952.16;5134270;28;20039;-93
2021/12/02 12:43:44;;;;;;;19.98;12.15;;;;;;;10.21;100.00;96967.00;5135603;27;20606;-94
2021/12/02 12:46:16;;;;;;;20.50;11.77;;;;;;;10.17;100.00;96961.91;5127439;28;20386;-94
2021/12/02 12:48:43;;;;;;;22.83;12.63;;;;;;;10.02;100.00;96937.06;5133670;28;20120;-91
2021/12/02 12:51:15;;;;;;;22.25;12.85;;;;;;;9.93;100.00;96922.47;5127657;28;20060;-91
2021/12/02 12:53:44;;;;;;;22.30;11.88;;;;;;;10.00;100.00;96915.88;5128740;28;20032;-93
2021/12/02 12:56:13;;;;;;;22.55;14.63;;;;;;;9.99;100.00;96919.47;5114989;28;20397;-93
2021/12/02 12:58:56;;;;;;;23.30;15.02;;;;;;;9.93;100.00;96908.31;5132544;28;20124;-95
2021/12/02 13:01:25;;;;;;;18.63;13.00;;;;;;;10.02;100.00;96921.97;5131005;28;20035;-94
2021/12/02 13:04:14;;;;;;;15.45;10.15;;;;;;;10.02;100.00;96924.63;5129996;28;20093;-95
2021/12/02 13:06:52;;;;;;;14.23;7.33;;;;;;;9.97;100.00;96925.81;5112962;28;20126;-93
2021/12/02 13:09:41;;;;;;;18.48;8.77;;;;;;;9.99;100.00;96950.47;5126650;28;20043;-92
2021/12/02 13:12:07;;;;;;;11.82;5.60;;;;;;;9.70;100.00;96942.28;5128447;28;20043;-92
2021/12/02 13:14:34;;;;;;;4.88;3.13;;;;;;;9.56;100.00;96899.69;5129497;28;20047;-91
2021/12/02 13:17:20;;;;;;;8.15;4.50;;;;;;;9.60;100.00;96902.09;5124183;28;20050;-94
2021/12/02 13:19:57;;;;;;;9.07;4.40;;;;;;;9.61;100.00;96918.88;5130340;28;20043;-94
2021/12/02 13:22:23;;;;;;;8.27;4.45;;;;;;;9.58;100.00;96908.41;5128245;28;20100;-92
2021/12/02 13:24:50;;;;;;;9.18;4.05;;;;;;;9.60;100.00;96896.78;5128825;28;20039;-92
2021/12/02 13:27:21;;;;;;;8.60;4.15;;;;;;;9.62;100.00;96886.94;5129184;28;20034;-94
2021/12/02 13:29:47;;;;;;;7.32;3.95;;;;;;;9.65;100.00;96889.44;5125945;28;20035;-94
2021/12/02 13:32:13;;;;;;;8.73;4.78;;;;;;;9.73;100.00;96904.94;5123384;28;20408;-92
2021/12/02 13:34:39;;;;;;;7.40;4.53;;;;;;;9.67;100.00;96892.00;5128724;28;20040;-95
2021/12/02 13:37:07;;;;;;;13.00;5.40;;;;;;;9.57;100.00;96888.16;5133240;28;20557;-92
2021/12/02 13:39:34;;;;;;;11.38;5.10;;;;;;;9.58;100.00;96882.72;5131771;28;20047;-93
2021/12/02 13:42:06;;;;;;;14.00;7.63;;;;;;;9.69;100.00;96874.19;5125768;28;20488;-93
2021/12/02 13:44:35;;;;;;;12.80;7.95;;;;;;;9.96;100.00;96903.72;5127565;28;20126;-94
2021/12/02 13:47:05;;;;;;;15.05;8.45;;;;;;;9.91;100.00;96900.47;5125332;28;20118;-93
2021/12/02 13:49:35;;;;;;;15.30;8.23;;;;;;;9.80;100.00;96881.56;5110576;28;20066;-95
2021/12/02 13:55:10;;;;;;;16.83;9.68;;;;;;;9.75;100.00;96899.56;5093601;27;20378;-96
2021/12/02 13:57:40;;;;;;;18.70;10.13;;;;;;;9.77;100.00;96905.66;5099374;28;20072;-92
2021/12/02 14:00:12;;;;;;;14.38;8.93;;;;;;;9.72;100.00;96891.78;5095893;28;20044;-95
2021/12/02 14:02:39;;;;;;;10.43;6.50;;;;;;;9.71;100.00;96900.66;5094092;28;20478;-94
2021/12/02 14:05:07;;;;;;;10.35;5.50;;;;;;;9.74;100.00;96903.16;5096189;28;20044;-94
2021/12/02 14:07:36;;;;;;;8.88;4.88;;;;;;;9.65;100.00;96884.16;5093690;28;20033;-95
2021/12/02 14:10:05;;;;;;;8.00;3.53;;;;;;;9.65;100.00;96893.91;5098122;28;20045;-93
2021/12/02 14:12:39;;;;;;;6.65;3.88;;;;;;;9.56;100.00;96884.59;5089463;28;20114;-94
2021/12/02 14:15:08;;;;;;;8.20;4.35;;;;;;;9.64;100.00;96903.63;5097109;28;20044;-94
2021/12/02 14:17:48;;;;;;;7.10;4.03;;;;;;;9.55;100.00;96888.22;5096063;28;20079;-95
2021/12/02 14:20:15;;;;;;;9.18;4.57;;;;;;;9.56;100.00;96878.44;5093943;28;20071;-95
2021/12/02 14:22:46;;;;;;;13.60;6.40;;;;;;;9.65;100.00;96889.44;5086157;28;20040;-93
2021/12/02 14:25:14;;;;;;;15.27;6.55;;;;;;;9.60;100.00;96878.19;5092176;28;20110;-95
2021/12/02 14:27:40;;;;;;;11.77;5.47;;;;;;;9.54;100.00;96859.97;5090066;28;20036;-94
2021/12/02 14:30:12;;;;;;;10.77;5.97;;;;;;;9.51;100.00;96857.47;5093283;28;20040;-93
2021/12/02 14:32:39;;;;;;;11.38;6.78;;;;;;;9.61;100.00;96895.84;5092621;28;20422;-94
2021/12/02 14:35:10;;;;;;;18.73;10.00;;;;;;;9.53;100.00;96889.25;5093457;28;20036;-95
2021/12/02 14:37:36;;;;;;;20.48;10.90;;;;;;;9.52;100.00;96869.81;5091871;28;20041;-94
2021/12/02 14:40:03;;;;;;;24.52;12.32;;;;;;;9.52;100.00;96872.47;5092660;28;20046;-93
2021/12/02 14:42:30;;;;;;;26.33;12.15;;;;;;;9.47;100.00;96863.88;5094144;28;20072;-92